Time;durP1;ratioP1;P1;durP2;ratioP2;P2;SDS_P1;SDS_P2;PMS_P1;PMS_P2;Temp;Humidity;BMP_temperature;BMP_pressure;BME280_temperature;BME280_humidity;BME280_pressure;Samples;Min_cycle;Max_cycle;Signal;HPM_P1;HPM_P2
2021/11/08 00:00:46;;;;;;;2.30;1.10;;;22.30;54.40;;;;;;5034575;28;20036;-60
2021/11/08 00:03:15;;;;;;;2.60;1.17;;;22.20;54.50;;;;;;5034307;28;20049;-60
2021/11/08 00:05:43;;;;;;;1.63;1.10;;;22.20;54.40;;;;;;5037689;28;20029;-58
2021/11/08 00:08:10;;;;;;;1.50;0.95;;;22.20;54.40;;;;;;5031658;28;20018;-59
2021/11/08 00:10:36;;;;;;;2.88;1.20;;;22.20;54.50;;;;;;5033586;28;20143;-51
2021/11/08 00:13:05;;;;;;;2.30;1.20;;;22.20;54.50;;;;;;5033220;28;20035;-60
2021/11/08 00:16:29;;;;;;;2.22;1.10;;;22.10;54.40;;;;;;5041606;28;20025;-58
2021/11/08 00:20:55;;;;;;;1.65;1.10;;;22.10;54.40;;;;;;5034806;28;20112;-59
2021/11/08 00:23:22;;;;;;;2.58;1.17;;;22.10;54.40;;;;;;5035939;28;20535;-59
2021/11/08 00:25:48;;;;;;;2.65;1.20;;;22.10;54.50;;;;;;5033081;28;20373;-58
2021/11/08 00:28:16;;;;;;;1.88;1.20;;;22.10;55.00;;;;;;5042248;28;20112;-56
2021/11/08 00:30:43;;;;;;;2.25;0.90;;;22.10;54.50;;;;;;5033891;28;20042;-60
2021/11/08 00:33:15;;;;;;;1.33;0.90;;;22.00;54.40;;;;;;5035827;28;20504;-58
2021/11/08 00:35:42;;;;;;;1.90;1.00;;;22.00;54.50;;;;;;5038699;28;20127;-56
2021/11/08 00:38:08;;;;;;;1.70;1.00;;;22.00;54.40;;;;;;5039026;28;20056;-56
2021/11/08 00:40:35;;;;;;;2.38;1.10;;;22.00;54.40;;;;;;5031438;28;20223;-58
2021/11/08 00:43:02;;;;;;;2.08;1.15;;;22.00;54.50;;;;;;5042344;28;20063;-58
2021/11/08 00:45:28;;;;;;;1.70;1.00;;;22.00;54.50;;;;;;5050052;28;20029;-55
2021/11/08 00:47:55;;;;;;;1.85;1.02;;;22.00;54.50;;;;;;5040870;28;20037;-54
2021/11/08 00:50:21;;;;;;;1.42;1.08;;;22.00;54.50;;;;;;5035775;28;20543;-58
2021/11/08 00:52:48;;;;;;;1.55;1.00;;;21.90;54.50;;;;;;5040318;28;20108;-58
2021/11/08 00:55:14;;;;;;;1.50;1.00;;;21.90;54.50;;;;;;5039091;28;20026;-59
2021/11/08 00:57:43;;;;;;;1.73;1.10;;;21.90;54.50;;;;;;5039407;28;20032;-59
2021/11/08 01:00:10;;;;;;;2.25;0.98;;;21.90;54.50;;;;;;5038817;28;20037;-59
2021/11/08 01:02:37;;;;;;;1.50;1.00;;;21.90;54.50;;;;;;5044710;28;20488;-59
2021/11/08 01:05:04;;;;;;;1.95;1.10;;;21.90;54.50;;;;;;5035315;28;20037;-59
2021/11/08 01:07:30;;;;;;;2.60;0.93;;;21.90;54.50;;;;;;5036258;28;20152;-58
2021/11/08 01:09:56;;;;;;;1.42;0.98;;;21.90;54.60;;;;;;5036179;28;20544;-58
2021/11/08 01:12:25;;;;;;;2.95;1.00;;;21.80;54.50;;;;;;5034791;28;20116;-58
2021/11/08 01:14:51;;;;;;;2.58;1.02;;;21.90;54.60;;;;;;5036944;28;20044;-59
2021/11/08 01:17:17;;;;;;;1.73;1.10;;;21.80;55.10;;;;;;5044081;28;20060;-57
2021/11/08 01:19:43;;;;;;;1.25;0.90;;;21.80;54.50;;;;;;5037455;28;20060;-57
2021/11/08 01:22:20;;;;;;;2.35;1.23;;;21.80;54.50;;;;;;5041869;28;20028;-60
2021/11/08 01:24:55;;;;;;;1.95;1.00;;;21.80;54.60;;;;;;5030986;28;20030;-56
2021/11/08 01:27:37;;;;;;;2.15;0.90;;;21.80;54.60;;;;;;5038127;28;20111;-59
2021/11/08 01:30:10;;;;;;;2.10;1.00;;;21.80;54.60;;;;;;5038245;28;20025;-55
2021/11/08 01:32:36;;;;;;;2.97;1.00;;;21.70;54.60;;;;;;5034056;28;20438;-59
2021/11/08 01:35:03;;;;;;;1.77;1.02;;;21.70;54.50;;;;;;5032331;28;20021;-58
2021/11/08 01:37:29;;;;;;;1.50;1.00;;;21.70;54.60;;;;;;5035383;28;20030;-57
2021/11/08 01:39:55;;;;;;;1.60;0.98;;;21.70;54.60;;;;;;5035962;28;20024;-59
2021/11/08 01:42:20;;;;;;;2.40;1.05;;;21.70;54.60;;;;;;5039778;28;20057;-59
2021/11/08 01:44:46;;;;;;;1.92;1.10;;;21.70;54.60;;;;;;5036477;28;20029;-60
2021/11/08 01:47:12;;;;;;;1.67;1.00;;;21.70;54.60;;;;;;5035130;28;20029;-59
2021/11/08 01:49:40;;;;;;;1.65;0.95;;;21.70;54.70;;;;;;5038598;28;20036;-59
2021/11/08 01:52:08;;;;;;;1.50;0.90;;;21.70;54.70;;;;;;5036029;28;20029;-58
2021/11/08 01:54:34;;;;;;;1.20;0.85;;;21.70;54.70;;;;;;5043362;28;20102;-58
2021/11/08 01:57:00;;;;;;;1.20;0.95;;;21.70;54.30;;;;;;5036218;28;20130;-59
2021/11/08 01:59:27;;;;;;;1.45;0.90;;;21.70;54.70;;;;;;5039025;28;20028;-58
2021/11/08 02:01:54;;;;;;;1.23;0.85;;;21.60;54.70;;;;;;5036477;28;20088;-59
2021/11/08 02:04:21;;;;;;;2.05;1.15;;;21.60;54.70;;;;;;5032224;28;20104;-57
2021/11/08 02:06:46;;;;;;;2.00;0.95;;;21.60;54.70;;;;;;5032857;28;20029;-59
2021/11/08 02:09:13;;;;;;;1.42;1.00;;;21.60;54.70;;;;;;5046744;28;20043;-59
2021/11/08 02:11:39;;;;;;;1.55;0.90;;;21.60;54.80;;;;;;5034982;28;20101;-59
2021/11/08 02:14:06;;;;;;;1.08;0.85;;;21.60;54.80;;;;;;5035905;28;20025;-58
2021/11/08 02:16:33;;;;;;;1.17;0.90;;;21.60;54.70;;;;;;5037925;28;20361;-57
2021/11/08 02:19:00;;;;;;;1.63;1.00;;;21.60;54.80;;;;;;5036670;28;20032;-54
2021/11/08 02:21:26;;;;;;;1.65;0.90;;;21.50;54.70;;;;;;5047031;28;20100;-54
2021/11/08 02:23:52;;;;;;;1.30;0.90;;;21.60;54.80;;;;;;5033467;28;20130;-58
2021/11/08 02:26:18;;;;;;;1.42;0.98;;;21.50;54.70;;;;;;5040434;28;20247;-56
2021/11/08 02:28:45;;;;;;;1.25;0.93;;;21.50;54.70;;;;;;5031747;28;20117;-60
2021/11/08 02:31:17;;;;;;;2.03;0.98;;;21.50;54.70;;;;;;5039102;28;20045;-53
2021/11/08 02:33:48;;;;;;;1.10;0.88;;;21.50;54.70;;;;;;5028138;28;20048;-58
2021/11/08 02:36:14;;;;;;;1.70;1.00;;;21.50;54.70;;;;;;5039708;28;20029;-59
2021/11/08 02:38:52;;;;;;;1.42;1.00;;;21.50;54.80;;;;;;5031052;28;20021;-59
2021/11/08 02:41:19;;;;;;;1.70;0.90;;;21.50;54.70;;;;;;5035063;28;20165;-59
2021/11/08 02:43:45;;;;;;;1.65;1.13;;;21.50;54.80;;;;;;5037500;28;20021;-58
2021/11/08 02:46:16;;;;;;;1.83;1.00;;;21.50;54.80;;;;;;5038477;28;20028;-60
2021/11/08 02:48:48;;;;;;;1.35;0.85;;;21.40;54.70;;;;;;5049466;28;20720;-59
2021/11/08 02:51:26;;;;;;;1.67;0.90;;;21.40;54.70;;;;;;5039803;28;20030;-54
2021/11/08 02:54:00;;;;;;;1.98;0.90;;;21.40;54.70;;;;;;5042238;28;20116;-57
2021/11/08 02:56:26;;;;;;;1.42;0.90;;;21.40;54.80;;;;;;5036534;28;20132;-58
2021/11/08 02:58:52;;;;;;;1.83;0.98;;;21.40;54.70;;;;;;5036843;28;20021;-55
2021/11/08 03:01:23;;;;;;;1.30;0.90;;;21.40;54.80;;;;;;5041048;28;20056;-54
2021/11/08 03:04:00;;;;;;;1.63;0.98;;;21.40;54.80;;;;;;5047992;28;20013;-58
2021/11/08 03:06:32;;;;;;;1.67;0.90;;;21.40;54.80;;;;;;5041970;28;20066;-58
2021/11/08 03:09:12;;;;;;;1.52;0.98;;;21.40;54.80;;;;;;5039183;28;20105;-59
2021/11/08 03:11:38;;;;;;;1.35;0.90;;;21.40;54.80;;;;;;5047673;28;20113;-59
2021/11/08 03:14:06;;;;;;;1.67;1.00;;;21.40;54.80;;;;;;5034644;28;20151;-59
2021/11/08 03:19:17;;;;;;;1.83;0.80;;;21.30;54.80;;;;;;5041083;28;20108;-59
2021/11/08 03:21:45;;;;;;;1.27;0.80;;;21.30;54.90;;;;;;5040710;28;20037;-59
2021/11/08 03:24:17;;;;;;;1.83;1.15;;;21.30;54.80;;;;;;5037830;28;20020;-57
2021/11/08 03:26:55;;;;;;;1.02;0.90;;;21.30;54.90;;;;;;5045637;28;20029;-59
2021/11/08 03:29:22;;;;;;;1.00;0.80;;;21.30;54.90;;;;;;5044153;28;20096;-55
2021/11/08 03:31:50;;;;;;;1.45;1.05;;;21.30;54.80;;;;;;5033423;28;20072;-60
2021/11/08 03:34:17;;;;;;;1.75;0.90;;;21.30;54.90;;;;;;5043817;28;20025;-58
2021/11/08 03:36:43;;;;;;;0.95;0.80;;;21.30;54.90;;;;;;5038130;28;20037;-57
2021/11/08 03:39:10;;;;;;;1.25;0.88;;;21.30;54.90;;;;;;5039330;28;20078;-59
2021/11/08 03:41:35;;;;;;;0.80;0.80;;;21.30;54.90;;;;;;5042091;28;20533;-60
2021/11/08 03:44:01;;;;;;;1.27;0.80;;;21.20;54.80;;;;;;5039757;28;20040;-59
2021/11/08 03:46:27;;;;;;;1.23;0.80;;;21.30;54.90;;;;;;5038215;28;20040;-59
2021/11/08 03:48:53;;;;;;;2.00;1.00;;;21.20;54.80;;;;;;5044406;28;20060;-57
2021/11/08 03:51:19;;;;;;;2.42;1.10;;;21.20;54.90;;;;;;5037752;28;20699;-59
2021/11/08 03:53:44;;;;;;;1.38;0.90;;;21.20;54.90;;;;;;5045211;28;20025;-59
2021/11/08 03:56:10;;;;;;;1.70;1.00;;;21.20;54.90;;;;;;5043175;28;20028;-60
2021/11/08 03:58:36;;;;;;;1.27;0.82;;;21.20;54.90;;;;;;5040628;28;20042;-59
2021/11/08 04:01:05;;;;;;;1.25;0.85;;;21.20;54.90;;;;;;5043840;28;20043;-59
2021/11/08 04:03:30;;;;;;;1.55;0.80;;;21.20;54.90;;;;;;5038675;28;20099;-55
2021/11/08 04:05:56;;;;;;;1.20;0.70;;;21.20;54.90;;;;;;5044773;28;20029;-59
2021/11/08 04:08:22;;;;;;;1.30;1.02;;;21.20;54.90;;;;;;5039317;28;20045;-59
2021/11/08 04:10:53;;;;;;;1.17;0.80;;;21.20;54.90;;;;;;5046653;28;20395;-54
2021/11/08 04:13:21;;;;;;;2.22;1.00;;;21.20;54.90;;;;;;5045999;28;20036;-59
2021/11/08 04:15:48;;;;;;;1.30;0.88;;;21.20;54.90;;;;;;5036329;28;20028;-58
2021/11/08 04:18:19;;;;;;;1.58;0.90;;;21.20;54.90;;;;;;5043845;28;20114;-57
2021/11/08 04:20:46;;;;;;;1.27;0.90;;;21.10;54.90;;;;;;5033335;28;20029;-57
2021/11/08 04:23:13;;;;;;;1.40;0.90;;;21.10;54.90;;;;;;5045356;28;20089;-59
2021/11/08 04:25:40;;;;;;;1.08;0.80;;;21.20;54.90;;;;;;5033221;28;20068;-58
2021/11/08 04:28:06;;;;;;;1.10;0.85;;;21.20;54.90;;;;;;5038461;28;20024;-59
2021/11/08 04:30:35;;;;;;;1.20;0.90;;;21.10;54.90;;;;;;5034352;28;20044;-58
2021/11/08 04:33:13;;;;;;;1.13;0.75;;;21.10;54.90;;;;;;5036620;28;20059;-59
2021/11/08 04:35:45;;;;;;;1.30;0.90;;;21.10;54.90;;;;;;5036794;28;20069;-59
2021/11/08 04:40:52;;;;;;;1.13;0.77;;;21.10;54.90;;;;;;5035579;28;20548;-58
2021/11/08 04:51:22;;;;;;;1.10;0.80;;;21.00;54.90;;;;;;5035780;28;20055;-56
2021/11/08 04:54:08;;;;;;;1.05;0.80;;;21.10;54.90;;;;;;5034087;28;20025;-58
2021/11/08 05:24:11;;;;;;;1.25;0.90;;;21.00;55.00;;;;;;5041937;28;20041;-59
2021/11/08 05:31:43;;;;;;;1.50;0.90;;;21.00;55.10;;;;;;5032536;28;20109;-55
2021/11/08 05:34:09;;;;;;;1.02;0.80;;;21.00;55.10;;;;;;5036717;28;20036;-58
2021/11/08 05:36:34;;;;;;;0.90;0.70;;;21.00;55.10;;;;;;5035608;28;20063;-57
2021/11/08 05:39:04;;;;;;;1.05;0.80;;;21.00;55.10;;;;;;5032580;28;20041;-58
2021/11/08 05:41:30;;;;;;;0.70;0.70;;;20.90;55.10;;;;;;5038230;28;20800;-57
2021/11/08 05:43:55;;;;;;;1.20;0.77;;;20.90;55.10;;;;;;5033155;28;20026;-57
2021/11/08 05:46:21;;;;;;;1.55;0.90;;;20.90;55.10;;;;;;5039884;28;20040;-58
2021/11/08 05:48:49;;;;;;;1.58;0.77;;;20.90;55.10;;;;;;5033917;28;20389;-58
2021/11/08 05:51:15;;;;;;;1.05;0.80;;;20.90;55.10;;;;;;5036216;28;20186;-55
2021/11/08 05:53:48;;;;;;;1.55;0.80;;;20.90;55.10;;;;;;5035499;28;20030;-59
2021/11/08 06:50:33;;;;;;;1.75;1.02;;;22.50;53.20;;;;;;5048534;28;20051;-56
2021/11/08 06:53:03;;;;;;;1.70;1.00;;;22.70;52.90;;;;;;5033567;28;20026;-59
2021/11/08 06:55:29;;;;;;;1.75;1.05;;;22.80;52.50;;;;;;5045444;28;20049;-59
2021/11/08 06:58:02;;;;;;;1.30;0.82;;;22.90;52.40;;;;;;5038621;28;20028;-56
2021/11/08 07:00:28;;;;;;;1.48;0.90;;;22.90;52.20;;;;;;5042678;28;20029;-58
2021/11/08 07:02:54;;;;;;;1.35;0.80;;;23.00;52.10;;;;;;5041373;28;20033;-58
2021/11/08 07:05:20;;;;;;;1.23;0.80;;;23.00;52.00;;;;;;5048767;28;20051;-56
2021/11/08 07:07:47;;;;;;;2.03;0.80;;;22.90;52.10;;;;;;5038341;28;20069;-58
2021/11/08 07:10:12;;;;;;;1.83;0.90;;;22.90;52.20;;;;;;5049541;28;20032;-59
2021/11/08 07:12:38;;;;;;;0.80;0.80;;;22.80;52.20;;;;;;5043121;28;20024;-58
2021/11/08 07:15:07;;;;;;;1.33;0.85;;;22.80;52.30;;;;;;5048278;28;20040;-58
2021/11/08 07:17:34;;;;;;;1.10;0.80;;;22.80;52.40;;;;;;5032066;28;20025;-58
2021/11/08 07:20:00;;;;;;;1.63;1.13;;;22.80;52.40;;;;;;5046690;28;20446;-59
2021/11/08 07:22:27;;;;;;;1.20;0.70;;;22.80;52.40;;;;;;5034124;28;20056;-54
2021/11/08 07:24:53;;;;;;;1.67;0.85;;;22.80;52.40;;;;;;5047406;28;20590;-52
2021/11/08 07:27:19;;;;;;;0.80;0.80;;;22.80;52.40;;;;;;5035106;28;20061;-59
2021/11/08 07:29:45;;;;;;;1.52;0.80;;;22.80;52.30;;;;;;5046658;28;20032;-56
2021/11/08 07:32:10;;;;;;;0.93;0.70;;;22.80;52.40;;;;;;5035929;28;20309;-56
2021/11/08 07:34:36;;;;;;;1.25;0.80;;;22.80;52.40;;;;;;5048913;28;20422;-58
2021/11/08 07:37:03;;;;;;;1.02;0.75;;;22.80;52.30;;;;;;5042688;28;20571;-59
2021/11/08 07:39:29;;;;;;;2.08;0.80;;;22.80;52.30;;;;;;5042452;28;20032;-56
2021/11/08 07:41:54;;;;;;;1.13;0.80;;;22.80;52.30;;;;;;5039942;28;20424;-59
2021/11/08 07:44:20;;;;;;;0.98;0.70;;;22.80;52.20;;;;;;5037403;28;20453;-59
2021/11/08 07:46:46;;;;;;;1.13;0.80;;;22.80;52.30;;;;;;5037376;28;20486;-58
2021/11/08 07:49:12;;;;;;;1.45;0.80;;;22.80;52.30;;;;;;5040220;28;20051;-59
2021/11/08 07:51:38;;;;;;;1.00;0.80;;;22.80;52.30;;;;;;5041366;28;20093;-58
2021/11/08 07:54:03;;;;;;;1.25;0.70;;;22.80;52.20;;;;;;5040774;28;20022;-59
2021/11/08 07:56:29;;;;;;;1.38;0.80;;;22.80;52.20;;;;;;5041700;28;20845;-53
2021/11/08 07:58:55;;;;;;;1.38;0.80;;;22.80;52.20;;;;;;5039469;28;20515;-59
2021/11/08 08:01:21;;;;;;;0.90;0.70;;;22.80;52.20;;;;;;5042757;28;20033;-59
2021/11/08 08:03:47;;;;;;;1.20;0.80;;;22.80;52.30;;;;;;5043234;28;20376;-59
2021/11/08 08:06:14;;;;;;;0.93;0.70;;;22.80;52.40;;;;;;5040516;28;20049;-59
2021/11/08 08:08:42;;;;;;;0.77;0.70;;;22.80;52.30;;;;;;5036593;28;20028;-56
2021/11/08 08:11:08;;;;;;;1.33;0.70;;;22.80;53.00;;;;;;5034582;28;20074;-58
2021/11/08 08:13:36;;;;;;;0.90;0.60;;;23.00;53.00;;;;;;5041869;28;20053;-58
2021/11/08 08:16:05;;;;;;;1.02;0.60;;;23.10;53.20;;;;;;5044416;28;20016;-59
2021/11/08 08:18:33;;;;;;;0.75;0.60;;;23.10;53.30;;;;;;5034551;28;20457;-57
2021/11/08 08:20:59;;;;;;;1.08;0.60;;;23.20;53.50;;;;;;5038946;28;20047;-59
2021/11/08 08:23:25;;;;;;;1.02;0.60;;;23.20;53.70;;;;;;5031150;28;20045;-59
2021/11/08 08:25:51;;;;;;;3.03;0.80;;;23.20;53.90;;;;;;5039517;28;20033;-60
2021/11/08 08:28:17;;;;;;;1.45;0.70;;;23.20;53.90;;;;;;5035583;28;20036;-59
2021/11/08 08:30:43;;;;;;;2.60;0.70;;;23.20;54.40;;;;;;5036207;28;20464;-57
2021/11/08 08:33:08;;;;;;;0.70;0.70;;;23.20;54.10;;;;;;5040940;28;20029;-59
2021/11/08 08:35:39;;;;;;;0.68;0.65;;;23.20;54.10;;;;;;5033718;28;20547;-59
2021/11/08 08:38:10;;;;;;;0.63;0.55;;;23.30;54.40;;;;;;5045373;28;20346;-57
2021/11/08 08:40:37;;;;;;;0.95;0.60;;;23.30;54.40;;;;;;5042737;28;20021;-59
2021/11/08 08:43:04;;;;;;;1.30;0.70;;;23.30;54.60;;;;;;5028733;28;20025;-60
2021/11/08 08:45:30;;;;;;;0.60;0.60;;;23.40;54.60;;;;;;5039689;28;20025;-59
2021/11/08 08:47:56;;;;;;;0.60;0.50;;;23.40;54.40;;;;;;5045290;28;20017;-59
2021/11/08 08:50:22;;;;;;;1.02;0.68;;;23.40;54.80;;;;;;5031871;28;20496;-54
2021/11/08 08:52:49;;;;;;;1.98;0.65;;;23.40;55.10;;;;;;5030214;28;20029;-61
2021/11/08 08:55:15;;;;;;;1.25;0.70;;;23.50;55.40;;;;;;5036004;28;20030;-58
2021/11/08 08:57:40;;;;;;;0.50;0.50;;;23.50;55.20;;;;;;5038743;28;20040;-59
2021/11/08 09:00:11;;;;;;;1.38;0.63;;;23.50;55.10;;;;;;5043621;28;20333;-59
2021/11/08 09:02:37;;;;;;;1.73;0.60;;;23.60;55.30;;;;;;5033896;28;20061;-60
2021/11/08 09:05:04;;;;;;;1.15;0.60;;;23.60;55.40;;;;;;5037058;28;20025;-59
2021/11/08 09:07:30;;;;;;;1.23;0.50;;;23.70;55.40;;;;;;5032613;28;20052;-59
2021/11/08 09:09:56;;;;;;;0.57;0.57;;;23.70;55.50;;;;;;5037934;28;20034;-60
2021/11/08 09:12:22;;;;;;;0.75;0.50;;;23.70;55.70;;;;;;5043507;28;20033;-59
2021/11/08 09:14:48;;;;;;;0.98;0.52;;;23.70;55.70;;;;;;5034471;28;20025;-60
2021/11/08 09:17:14;;;;;;;1.63;0.60;;;23.80;55.70;;;;;;5038167;28;20025;-60
2021/11/08 09:19:40;;;;;;;0.70;0.60;;;23.70;55.70;;;;;;5030690;28;20869;-60
2021/11/08 09:22:08;;;;;;;1.70;0.55;;;23.80;55.90;;;;;;5034672;28;20037;-59
2021/11/08 09:24:34;;;;;;;2.28;0.70;;;23.80;56.10;;;;;;5041721;28;20923;-56
2021/11/08 09:27:01;;;;;;;1.10;0.60;;;23.90;56.20;;;;;;5032240;28;20143;-59
2021/11/08 09:29:27;;;;;;;3.05;0.60;;;23.90;56.10;;;;;;5035703;28;20039;-59
2021/11/08 09:31:53;;;;;;;0.52;0.50;;;23.90;56.40;;;;;;5037954;28;20140;-58
2021/11/08 09:34:22;;;;;;;0.60;0.60;;;24.00;56.60;;;;;;5038995;28;20025;-60
2021/11/08 09:36:48;;;;;;;1.17;0.60;;;24.00;56.80;;;;;;5033769;28;20108;-60
2021/11/08 09:39:24;;;;;;;0.60;0.60;;;24.00;57.00;;;;;;5038880;28;20048;-59
2021/11/08 09:41:52;;;;;;;0.47;0.40;;;24.10;57.30;;;;;;5031161;28;20026;-59
2021/11/08 09:44:18;;;;;;;2.53;0.57;;;24.10;57.30;;;;;;5040899;28;20024;-61
2021/11/08 09:46:44;;;;;;;1.15;0.70;;;24.10;57.40;;;;;;5036155;28;20089;-60
2021/11/08 09:49:11;;;;;;;0.85;0.50;;;24.10;57.40;;;;;;5037124;28;20113;-59
2021/11/08 09:51:41;;;;;;;1.02;0.50;;;24.20;57.40;;;;;;5030486;28;20074;-60
2021/11/08 09:54:07;;;;;;;1.85;0.80;;;24.20;57.60;;;;;;5039682;28;20044;-60
2021/11/08 09:56:33;;;;;;;0.80;0.70;;;24.20;54.60;;;;;;5035793;28;20531;-59
2021/11/08 09:59:00;;;;;;;1.27;0.80;;;24.10;53.50;;;;;;5034920;28;20029;-55
2021/11/08 10:01:27;;;;;;;1.42;0.82;;;24.10;52.90;;;;;;5029283;28;20058;-57
2021/11/08 10:03:55;;;;;;;1.35;1.00;;;24.10;52.80;;;;;;5044353;28;20048;-60
2021/11/08 10:06:21;;;;;;;1.17;0.80;;;24.00;52.50;;;;;;5033608;28;20169;-60
2021/11/08 10:08:48;;;;;;;0.70;0.65;;;24.00;52.40;;;;;;5029814;28;20037;-59
2021/11/08 10:11:17;;;;;;;2.22;0.70;;;24.00;52.50;;;;;;5036550;28;20025;-59
2021/11/08 10:13:45;;;;;;;3.60;0.65;;;24.00;52.50;;;;;;5038438;28;20029;-56
2021/11/08 10:16:19;;;;;;;1.33;0.70;;;23.90;52.40;;;;;;5037992;28;20827;-59
2021/11/08 10:18:52;;;;;;;0.75;0.60;;;23.90;52.40;;;;;;5033245;28;20022;-57
2021/11/08 10:21:27;;;;;;;0.90;0.60;;;23.90;52.30;;;;;;5037387;28;20110;-58
2021/11/08 10:23:55;;;;;;;1.50;0.70;;;23.90;52.10;;;;;;5030474;28;20030;-59
2021/11/08 10:26:23;;;;;;;3.45;0.60;;;24.00;52.10;;;;;;5036390;28;20040;-60
2021/11/08 10:28:58;;;;;;;0.70;0.70;;;24.00;52.10;;;;;;5034118;28;20037;-60
2021/11/08 10:31:33;;;;;;;1.50;0.70;;;24.00;52.10;;;;;;5037311;28;20045;-60
2021/11/08 10:34:05;;;;;;;0.60;0.60;;;23.90;52.20;;;;;;5028665;28;20036;-59
2021/11/08 10:36:30;;;;;;;1.42;0.70;;;23.90;52.30;;;;;;5030535;28;20038;-58
2021/11/08 10:38:57;;;;;;;0.80;0.60;;;23.90;52.30;;;;;;5035815;28;20044;-58
2021/11/08 10:41:31;;;;;;;0.68;0.60;;;23.90;52.20;;;;;;5041617;28;20063;-56
2021/11/08 10:44:04;;;;;;;2.28;0.75;;;23.90;52.20;;;;;;5037797;28;20819;-59
2021/11/08 10:46:37;;;;;;;0.77;0.60;;;23.90;52.20;;;;;;5027986;28;20499;-60
2021/11/08 10:49:08;;;;;;;0.82;0.65;;;23.90;52.10;;;;;;5032247;28;20029;-59
2021/11/08 10:51:36;;;;;;;2.05;0.70;;;23.90;52.20;;;;;;5033847;28;20067;-59
2021/11/08 10:54:06;;;;;;;1.00;0.70;;;23.90;52.30;;;;;;5043046;28;20025;-58
2021/11/08 10:56:37;;;;;;;;;;;23.90;52.40;;;;;;5030364;28;20774;-60
2021/11/08 10:59:16;;;;;;;1.13;0.60;;;23.80;52.30;;;;;;5037556;28;19915;-58
2021/11/08 11:01:52;;;;;;;0.88;0.70;;;23.80;52.40;;;;;;5033142;28;20041;-59
2021/11/08 11:04:28;;;;;;;0.60;0.60;;;23.90;52.50;;;;;;5033474;28;20021;-59
2021/11/08 11:06:54;;;;;;;0.60;0.60;;;23.90;52.30;;;;;;5035019;28;20064;-57
2021/11/08 11:09:20;;;;;;;1.05;0.80;;;23.80;52.10;;;;;;5033762;28;20025;-59
2021/11/08 11:11:47;;;;;;;0.90;0.70;;;23.80;52.00;;;;;;5041714;28;20047;-58
2021/11/08 11:14:14;;;;;;;1.45;0.70;;;23.80;51.90;;;;;;5041370;28;20017;-57
2021/11/08 11:16:48;;;;;;;1.30;0.80;;;23.80;51.80;;;;;;5037813;28;20024;-59
2021/11/08 11:19:17;;;;;;;1.83;0.70;;;23.80;51.80;;;;;;5037843;28;20017;-59
2021/11/08 11:22:02;;;;;;;1.25;0.80;;;23.80;51.80;;;;;;5035597;28;20029;-58
2021/11/08 11:24:31;;;;;;;1.42;0.70;;;23.80;51.80;;;;;;5038903;28;20038;-59
2021/11/08 11:26:56;;;;;;;1.58;0.70;;;23.80;51.80;;;;;;5031426;28;20025;-55
2021/11/08 11:29:28;;;;;;;1.13;0.70;;;23.80;51.90;;;;;;5033808;28;20029;-59
2021/11/08 11:31:54;;;;;;;0.75;0.60;;;23.70;51.90;;;;;;5029484;28;20055;-57
2021/11/08 11:34:19;;;;;;;1.00;0.60;;;23.80;52.10;;;;;;5039475;28;20025;-58
2021/11/08 11:36:45;;;;;;;0.95;0.68;;;23.80;52.00;;;;;;5031729;28;20022;-57
2021/11/08 11:39:16;;;;;;;1.08;0.70;;;23.70;52.00;;;;;;5033566;28;20166;-59
2021/11/08 11:41:45;;;;;;;1.15;0.60;;;23.80;52.10;;;;;;5038933;28;20585;-59
2021/11/08 11:44:17;;;;;;;0.57;0.57;;;23.80;52.10;;;;;;5037531;28;20482;-61
2021/11/08 11:46:46;;;;;;;0.80;0.60;;;23.70;52.10;;;;;;5040156;28;20908;-60
2021/11/08 11:49:13;;;;;;;1.20;0.70;;;23.70;52.10;;;;;;5036388;28;20025;-60
2021/11/08 11:51:45;;;;;;;1.27;0.70;;;23.80;52.10;;;;;;5034674;28;20136;-58
2021/11/08 11:54:13;;;;;;;0.90;0.60;;;23.70;52.10;;;;;;5041691;28;20021;-53
2021/11/08 11:56:41;;;;;;;0.90;0.60;;;23.70;52.30;;;;;;5031721;28;20026;-57
2021/11/08 11:59:08;;;;;;;0.80;0.60;;;23.70;52.40;;;;;;5036579;28;20048;-56
2021/11/08 12:01:36;;;;;;;1.23;0.70;;;23.70;52.30;;;;;;5035377;28;20116;-55
2021/11/08 12:04:02;;;;;;;1.30;0.60;;;23.70;52.30;;;;;;5034411;28;20152;-59
2021/11/08 12:06:32;;;;;;;1.90;0.60;;;23.80;52.20;;;;;;5032023;28;20136;-57
2021/11/08 12:09:00;;;;;;;0.85;0.73;;;23.70;52.20;;;;;;5032791;28;20381;-58
2021/11/08 12:11:47;;;;;;;2.40;0.60;;;23.80;52.20;;;;;;5040820;28;20032;-57
2021/11/08 12:14:19;;;;;;;1.17;0.70;;;23.80;52.20;;;;;;5032967;28;20025;-59
2021/11/08 12:17:14;;;;;;;1.00;0.90;;;23.70;52.10;;;;;;5034571;28;20036;-58
2021/11/08 12:19:42;;;;;;;2.13;0.70;;;23.80;52.20;;;;;;5039613;28;20032;-59
2021/11/08 12:22:22;;;;;;;1.10;0.85;;;23.80;52.10;;;;;;5032566;28;20612;-58
2021/11/08 12:25:00;;;;;;;1.02;0.80;;;23.80;52.10;;;;;;5035287;28;20037;-57
2021/11/08 12:27:36;;;;;;;0.88;0.70;;;23.80;52.10;;;;;;5035236;28;20140;-59
2021/11/08 12:30:09;;;;;;;1.65;0.70;;;23.70;52.00;;;;;;5031122;28;21004;-58
2021/11/08 12:32:54;;;;;;;1.27;0.70;;;23.80;52.10;;;;;;5043014;28;20077;-59
2021/11/08 12:35:29;;;;;;;0.85;0.70;;;23.80;52.10;;;;;;5035568;28;20029;-58
2021/11/08 12:37:55;;;;;;;0.90;0.70;;;23.80;52.10;;;;;;5038554;28;20517;-59
2021/11/08 12:40:27;;;;;;;1.38;0.70;;;23.80;52.10;;;;;;5039979;28;20028;-58
2021/11/08 12:42:54;;;;;;;1.30;0.90;;;23.80;52.10;;;;;;5034184;28;20037;-60
2021/11/08 12:45:29;;;;;;;1.40;0.80;;;23.80;52.20;;;;;;5029719;28;20026;-60
2021/11/08 12:48:05;;;;;;;0.90;0.57;;;23.80;52.10;;;;;;5031860;28;20041;-60
2021/11/08 12:50:39;;;;;;;1.10;0.70;;;23.80;52.10;;;;;;5036876;28;20016;-60
2021/11/08 12:53:05;;;;;;;1.10;0.70;;;23.80;52.60;;;;;;5036382;28;20029;-58
2021/11/08 12:55:42;;;;;;;1.17;0.70;;;23.80;52.10;;;;;;5036144;28;20029;-57
2021/11/08 12:58:08;;;;;;;1.30;0.70;;;23.80;52.20;;;;;;5036751;28;20025;-59
2021/11/08 13:00:43;;;;;;;2.72;0.80;;;23.80;52.10;;;;;;5035326;28;20570;-55
2021/11/08 13:03:14;;;;;;;0.90;0.70;;;23.80;52.10;;;;;;5036393;28;20022;-57
2021/11/08 13:05:44;;;;;;;1.00;0.63;;;23.80;52.10;;;;;;5030861;28;20029;-55
2021/11/08 13:08:24;;;;;;;1.30;0.70;;;23.80;52.10;;;;;;5029848;28;20021;-59
2021/11/08 13:11:11;;;;;;;0.85;0.60;;;23.80;52.10;;;;;;5038533;28;20882;-60
2021/11/08 13:13:59;;;;;;;0.98;0.60;;;23.80;52.10;;;;;;5031540;28;20024;-58
2021/11/08 13:16:41;;;;;;;1.42;0.70;;;23.80;52.10;;;;;;5030951;28;20405;-56
2021/11/08 13:19:10;;;;;;;0.80;0.68;;;23.80;52.10;;;;;;5033518;28;20061;-59
2021/11/08 13:21:36;;;;;;;0.88;0.60;;;23.80;52.00;;;;;;5041871;28;20126;-57
2021/11/08 13:24:03;;;;;;;1.42;0.70;;;23.80;52.10;;;;;;5039327;28;20041;-59
2021/11/08 13:26:30;;;;;;;1.05;0.60;;;23.80;52.00;;;;;;5036113;28;20044;-57
2021/11/08 13:28:55;;;;;;;0.88;0.75;;;23.80;52.10;;;;;;5028881;28;20143;-59
2021/11/08 13:31:21;;;;;;;0.75;0.68;;;23.80;52.00;;;;;;5033634;28;20131;-58
2021/11/08 13:33:51;;;;;;;1.45;0.70;;;23.80;52.10;;;;;;5035166;28;20424;-59
2021/11/08 13:36:17;;;;;;;1.35;0.82;;;23.80;52.10;;;;;;5033029;28;20616;-56
2021/11/08 13:38:50;;;;;;;1.00;0.60;;;23.90;52.10;;;;;;5031785;28;20037;-60
2021/11/08 13:41:25;;;;;;;0.90;0.68;;;23.90;52.20;;;;;;5033079;28;20458;-57
2021/11/08 13:43:57;;;;;;;0.88;0.55;;;23.90;52.10;;;;;;5027560;28;20029;-57
2021/11/08 13:46:34;;;;;;;0.80;0.50;;;23.90;52.10;;;;;;5035855;28;20406;-57
2021/11/08 13:49:12;;;;;;;1.45;0.70;;;23.80;52.30;;;;;;5040191;28;20124;-54
2021/11/08 13:51:44;;;;;;;0.40;0.40;;;23.80;52.10;;;;;;5041056;28;20664;-58
2021/11/08 13:54:13;;;;;;;1.17;0.70;;;23.80;52.20;;;;;;5035806;28;20030;-58
2021/11/08 13:56:41;;;;;;;0.85;0.60;;;23.80;52.30;;;;;;5031114;28;20489;-58
2021/11/08 13:59:13;;;;;;;0.88;0.60;;;23.80;52.30;;;;;;5037942;28;20029;-58
2021/11/08 14:01:44;;;;;;;1.40;0.70;;;23.80;52.30;;;;;;5024165;28;20037;-57
2021/11/08 14:04:10;;;;;;;1.00;0.60;;;23.80;52.40;;;;;;5031796;28;20071;-59
2021/11/08 14:06:42;;;;;;;2.03;0.70;;;23.80;52.30;;;;;;5031269;28;20516;-58
2021/11/08 14:09:19;;;;;;;0.80;0.52;;;23.80;52.30;;;;;;5035333;28;20019;-57
2021/11/08 14:11:46;;;;;;;1.08;0.60;;;23.80;52.10;;;;;;5042630;28;20029;-57
2021/11/08 14:14:17;;;;;;;0.95;0.65;;;23.90;52.20;;;;;;5027621;28;20244;-55
2021/11/08 14:16:47;;;;;;;1.30;0.90;;;23.80;52.00;;;;;;5036104;28;20039;-54
2021/11/08 14:19:14;;;;;;;1.02;0.60;;;23.90;52.00;;;;;;5033227;28;20021;-58
2021/11/08 14:21:41;;;;;;;1.20;0.70;;;23.90;52.10;;;;;;5031331;28;20053;-58
2021/11/08 14:24:12;;;;;;;0.98;0.60;;;23.90;52.10;;;;;;5037509;28;20044;-56
2021/11/08 14:26:42;;;;;;;1.40;0.80;;;23.90;52.10;;;;;;5029999;28;20519;-56
2021/11/08 14:29:29;;;;;;;1.45;0.75;;;23.80;52.10;;;;;;5027351;28;20468;-58
2021/11/08 14:32:21;;;;;;;0.52;0.50;;;23.90;52.10;;;;;;5029758;28;20049;-57
2021/11/08 14:35:06;;;;;;;1.20;0.70;;;23.90;52.10;;;;;;5032143;28;20046;-57
2021/11/08 14:38:21;;;;;;;0.80;0.60;;;23.90;52.10;;;;;;5030631;28;20044;-57
2021/11/08 14:40:45;;;;;;;1.17;0.70;;;23.90;52.50;;;;;;5038167;28;20049;-59